createdAt,value
2022-07-29T10:06:00.000Z,7
2022-07-29T10:06:00.000Z,8
2022-07-29T10:06:03.000Z,7
2022-07-29T10:06:05.000Z,7
2022-07-29T10:06:08.000Z,7
2022-07-29T10:06:10.000Z,7
2022-07-29T10:06:13.000Z,8
2022-07-29T10:06:15.000Z,7
2022-07-29T10:06:18.000Z,7
2022-07-29T10:06:20.000Z,7
2022-07-29T10:06:21.000Z,7
2022-07-29T10:06:23.000Z,8
2022-07-29T10:06:25.000Z,7
2022-07-29T10:06:28.000Z,7
2022-07-29T10:06:32.000Z,7
2022-07-29T10:06:34.000Z,8
2022-07-29T10:06:37.000Z,7
2022-07-29T10:06:39.000Z,7
2022-07-29T10:06:41.000Z,8
2022-07-29T10:06:42.000Z,7
2022-07-29T10:06:49.000Z,7
2022-07-29T10:06:52.000Z,7
2022-07-29T10:06:54.000Z,7
2022-07-29T10:06:57.000Z,7
2022-07-29T10:07:10.000Z,7
2022-07-29T10:07:10.000Z,7
2022-07-29T10:07:12.000Z,7
2022-07-29T10:07:15.000Z,7
2022-07-29T10:07:17.000Z,7
2022-07-29T10:07:20.000Z,7
2022-07-29T10:07:22.000Z,7
2022-07-29T10:07:25.000Z,7
2022-07-29T10:07:27.000Z,7
2022-07-29T10:07:30.000Z,7
2022-07-29T10:07:30.000Z,7
2022-07-29T10:07:32.000Z,7
2022-07-29T10:07:35.000Z,7
2022-07-29T10:07:37.000Z,7
2022-07-29T10:07:40.000Z,7
2022-07-29T10:07:47.000Z,7
2022-07-29T10:07:49.000Z,7
2022-07-29T10:07:50.000Z,7
2022-07-29T10:07:52.000Z,7
2022-07-29T10:08:53.000Z,7
2022-07-29T10:08:53.000Z,7
2022-07-29T10:08:56.000Z,7
2022-07-29T10:08:58.000Z,7
2022-07-29T10:09:01.000Z,7
2022-07-29T10:09:03.000Z,7
2022-07-29T10:09:06.000Z,7
2022-07-29T10:09:08.000Z,7
2022-07-29T10:09:11.000Z,7
2022-07-29T10:09:13.000Z,7
2022-07-29T10:09:13.000Z,7
2022-07-29T10:09:16.000Z,7
2022-07-29T10:09:27.000Z,7
2022-07-29T10:09:30.000Z,7
2022-07-29T10:09:35.000Z,7
2022-07-29T10:09:35.000Z,7
2022-07-29T10:09:37.000Z,7
2022-07-29T10:09:40.000Z,7
2022-07-29T10:09:46.000Z,7
2022-07-29T10:09:49.000Z,7
2022-07-29T10:09:51.000Z,7
2022-07-29T10:09:54.000Z,7
2022-07-29T10:09:55.000Z,8
2022-07-29T10:09:56.000Z,7
2022-07-29T10:09:59.000Z,7
2022-07-29T10:10:01.000Z,7
2022-07-29T10:10:04.000Z,7
2022-07-29T10:10:06.000Z,7
2022-07-29T10:10:09.000Z,7
2022-07-29T10:10:13.000Z,7
2022-07-29T10:10:15.000Z,7
2022-07-29T10:10:15.000Z,7
2022-07-29T10:10:18.000Z,7
2022-07-29T10:10:20.000Z,7
2022-07-29T10:10:23.000Z,7
2022-07-29T10:10:25.000Z,7
2022-07-29T10:10:28.000Z,7
2022-07-29T10:10:30.000Z,7
2022-07-29T10:10:33.000Z,7
2022-07-29T10:10:35.000Z,7
2022-07-29T10:10:36.000Z,7
2022-07-29T10:10:38.000Z,7
2022-07-29T10:10:41.000Z,7
2022-07-29T10:10:43.000Z,7
2022-07-29T10:10:46.000Z,7
2022-07-29T10:10:48.000Z,7
2022-07-29T10:10:51.000Z,7
2022-07-29T10:10:53.000Z,7
2022-07-29T10:10:56.000Z,7
2022-07-29T10:10:56.000Z,8
2022-07-29T10:10:58.000Z,7
2022-07-29T10:11:01.000Z,7
2022-07-29T10:11:03.000Z,7
2022-07-29T10:11:06.000Z,7
2022-07-29T10:11:08.000Z,7
2022-07-29T10:11:11.000Z,7
2022-07-29T10:11:14.000Z,7
2022-07-29T10:11:16.000Z,6
2022-07-29T10:11:16.000Z,7
2022-07-29T10:11:19.000Z,7
2022-07-29T10:11:21.000Z,7
2022-07-29T10:11:24.000Z,7
2022-07-29T10:11:26.000Z,7
2022-07-29T10:11:29.000Z,7
2022-07-29T10:11:31.000Z,7
2022-07-29T10:11:34.000Z,7
2022-07-29T10:11:36.000Z,7
2022-07-29T10:11:36.000Z,7
2022-07-29T10:11:39.000Z,7
2022-07-29T10:11:41.000Z,7
2022-07-29T10:11:44.000Z,6
2022-07-29T10:12:03.000Z,7
2022-07-29T10:12:03.000Z,6
2022-07-29T10:12:06.000Z,7
2022-07-29T10:12:08.000Z,7
2022-07-29T10:12:11.000Z,7
2022-07-29T10:12:13.000Z,7
2022-07-29T10:12:16.000Z,7
2022-07-29T10:12:18.000Z,7
2022-07-29T10:12:21.000Z,7
2022-07-29T10:12:23.000Z,8
2022-07-29T10:12:23.000Z,7
2022-07-29T10:12:26.000Z,7
2022-07-29T10:12:28.000Z,7
2022-07-29T10:12:31.000Z,7
2022-07-29T10:12:33.000Z,7
2022-07-29T10:12:36.000Z,7
2022-07-29T10:12:38.000Z,7
2022-07-29T10:12:41.000Z,7
2022-07-29T10:12:44.000Z,8
2022-07-29T10:12:44.000Z,7
2022-07-29T10:12:46.000Z,7
2022-07-29T10:12:49.000Z,7
2022-07-29T10:12:51.000Z,7
2022-07-29T10:12:54.000Z,6
2022-07-29T10:12:56.000Z,7
2022-07-29T10:12:59.000Z,7
2022-07-29T10:13:01.000Z,7
2022-07-29T10:13:04.000Z,7
2022-07-29T10:13:04.000Z,6
2022-07-29T10:13:06.000Z,7
2022-07-29T10:13:09.000Z,7
2022-07-29T10:13:11.000Z,7
2022-07-29T10:13:14.000Z,7
2022-07-29T10:13:16.000Z,7
2022-07-29T10:13:19.000Z,7
2022-07-29T10:13:22.000Z,7
2022-07-29T10:13:24.000Z,7
2022-07-29T10:13:24.000Z,7
2022-07-29T10:13:27.000Z,7
2022-07-29T10:13:29.000Z,7
2022-07-29T10:13:32.000Z,7
2022-07-29T10:13:34.000Z,7
2022-07-29T10:13:37.000Z,7
2022-07-29T10:13:39.000Z,7
2022-07-29T10:13:42.000Z,6
2022-07-29T10:13:44.000Z,7
2022-07-29T10:13:44.000Z,7
2022-07-29T10:13:47.000Z,7
2022-07-29T10:13:49.000Z,7
2022-07-29T10:13:52.000Z,7
2022-07-29T10:13:54.000Z,7
2022-07-29T10:13:57.000Z,7
2022-07-29T10:13:59.000Z,7
2022-07-29T10:14:02.000Z,7
2022-07-29T10:14:05.000Z,7
2022-07-29T10:14:05.000Z,8
2022-07-29T10:14:07.000Z,7
2022-07-29T10:14:10.000Z,7
2022-07-29T10:14:12.000Z,7
2022-07-29T10:14:15.000Z,7
2022-07-29T10:14:17.000Z,7
2022-07-29T10:14:20.000Z,7
2022-07-29T10:14:22.000Z,7
2022-07-29T10:14:25.000Z,7
2022-07-29T10:14:25.000Z,7
2022-07-29T10:14:27.000Z,7
2022-07-29T10:14:30.000Z,7
2022-07-29T10:14:32.000Z,7
2022-07-29T10:14:35.000Z,7
2022-07-29T10:14:37.000Z,7
2022-07-29T10:14:40.000Z,7
2022-07-29T10:14:43.000Z,7
2022-07-29T10:14:45.000Z,7
2022-07-29T10:14:45.000Z,7
2022-07-29T10:14:48.000Z,7
2022-07-29T10:14:50.000Z,7
2022-07-29T10:14:53.000Z,7
2022-07-29T10:14:55.000Z,7
2022-07-29T10:14:58.000Z,6
2022-07-29T10:15:00.000Z,7
2022-07-29T10:15:03.000Z,7
2022-07-29T10:15:05.000Z,7
2022-07-29T10:15:06.000Z,7
2022-07-29T10:15:08.000Z,7
2022-07-29T10:15:11.000Z,7
2022-07-29T10:15:13.000Z,7
2022-07-29T10:15:16.000Z,7
2022-07-29T10:15:18.000Z,7
2022-07-29T10:15:21.000Z,7
2022-07-29T10:15:23.000Z,7
2022-07-29T10:15:26.000Z,7
2022-07-29T10:15:26.000Z,7
2022-07-29T10:15:28.000Z,7
2022-07-29T10:15:31.000Z,7
2022-07-29T10:15:33.000Z,7
2022-07-29T10:15:36.000Z,7
2022-07-29T10:15:38.000Z,8
2022-07-29T10:15:41.000Z,7
2022-07-29T10:15:43.000Z,7
2022-07-29T10:15:46.000Z,8
2022-07-29T10:15:46.000Z,7
2022-07-29T10:15:49.000Z,7
2022-07-29T10:15:51.000Z,7
2022-07-29T10:15:54.000Z,7
2022-07-29T10:15:56.000Z,7
2022-07-29T10:15:59.000Z,7
2022-07-29T10:16:01.000Z,7
2022-07-29T10:16:04.000Z,7
2022-07-29T10:16:06.000Z,8
2022-07-29T10:16:06.000Z,6
2022-07-29T10:16:09.000Z,7
2022-07-29T10:16:11.000Z,7
2022-07-29T10:16:14.000Z,7
2022-07-29T10:16:16.000Z,7
2022-07-29T10:16:19.000Z,7
2022-07-29T10:16:21.000Z,7
2022-07-29T10:16:24.000Z,7
2022-07-29T10:16:26.000Z,7
2022-07-29T10:16:27.000Z,7
2022-07-29T10:16:29.000Z,7
2022-07-29T10:16:32.000Z,7
2022-07-29T10:16:34.000Z,7
2022-07-29T10:16:37.000Z,7
2022-07-29T10:16:39.000Z,7
2022-07-29T10:16:42.000Z,6
2022-07-29T10:16:44.000Z,7
2022-07-29T10:16:46.000Z,7
2022-07-29T10:16:47.000Z,7
2022-07-29T10:16:49.000Z,7
2022-07-29T10:16:52.000Z,7
2022-07-29T10:16:54.000Z,7
2022-07-29T10:16:57.000Z,7
2022-07-29T10:16:59.000Z,7
2022-07-29T10:17:02.000Z,7
2022-07-29T10:17:04.000Z,7
2022-07-29T10:17:07.000Z,7
2022-07-29T10:17:07.000Z,7
2022-07-29T10:17:10.000Z,7
2022-07-29T10:17:12.000Z,7
2022-07-29T10:17:15.000Z,7
2022-07-29T10:17:17.000Z,7
2022-07-29T10:17:20.000Z,7
2022-07-29T10:17:22.000Z,7
2022-07-29T10:17:25.000Z,7
2022-07-29T10:17:27.000Z,7
2022-07-29T10:17:27.000Z,8
2022-07-29T10:17:30.000Z,8
2022-07-29T10:17:32.000Z,7
2022-07-29T10:17:35.000Z,7
2022-07-29T10:17:37.000Z,7
2022-07-29T10:17:40.000Z,7
2022-07-29T10:17:42.000Z,7
2022-07-29T10:17:45.000Z,7
2022-07-29T10:17:47.000Z,7
2022-07-29T10:17:48.000Z,7
2022-07-29T10:17:50.000Z,7
2022-07-29T10:17:53.000Z,7
2022-07-29T10:17:55.000Z,7
2022-07-29T10:17:58.000Z,7
2022-07-29T10:18:00.000Z,7
2022-07-29T10:18:03.000Z,7
2022-07-29T10:18:05.000Z,7
2022-07-29T10:18:07.000Z,8
2022-07-29T10:18:08.000Z,7
2022-07-29T10:18:10.000Z,7
2022-07-29T10:18:13.000Z,7
2022-07-29T10:18:15.000Z,7
2022-07-29T10:18:18.000Z,8
2022-07-29T10:18:21.000Z,8
2022-07-29T10:18:23.000Z,7
2022-07-29T10:18:26.000Z,7
2022-07-29T10:18:28.000Z,7
2022-07-29T10:18:28.000Z,7
2022-07-29T10:18:31.000Z,7
2022-07-29T10:18:33.000Z,7
2022-07-29T10:18:36.000Z,7
2022-07-29T10:18:38.000Z,7
2022-07-29T10:18:41.000Z,7
2022-07-29T10:18:43.000Z,7
2022-07-29T10:18:46.000Z,7
2022-07-29T10:18:48.000Z,8
2022-07-29T10:18:48.000Z,7
2022-07-29T10:18:51.000Z,7
2022-07-29T10:18:53.000Z,7
2022-07-29T10:18:56.000Z,8
2022-07-29T10:18:58.000Z,7
2022-07-29T10:19:01.000Z,7
2022-07-29T10:19:03.000Z,8
2022-07-29T10:19:06.000Z,7
2022-07-29T10:19:08.000Z,8
2022-07-29T10:19:09.000Z,8
2022-07-29T10:19:11.000Z,7
2022-07-29T10:19:14.000Z,7
2022-07-29T10:19:16.000Z,8
2022-07-29T10:19:19.000Z,7
2022-07-29T10:19:21.000Z,7
2022-07-29T10:19:24.000Z,7
2022-07-29T10:19:26.000Z,7
2022-07-29T10:19:29.000Z,7
2022-07-29T10:19:29.000Z,8
2022-07-29T10:19:31.000Z,7
2022-07-29T10:19:34.000Z,8
2022-07-29T10:19:36.000Z,7
2022-07-29T10:19:39.000Z,7
2022-07-29T10:19:41.000Z,7
2022-07-29T10:19:44.000Z,7
2022-07-29T10:19:46.000Z,7
2022-07-29T10:19:49.000Z,7
2022-07-29T10:19:49.000Z,8
2022-07-29T10:19:52.000Z,7
2022-07-29T10:19:54.000Z,8
2022-07-29T10:19:57.000Z,7
2022-07-29T10:19:59.000Z,7
2022-07-29T10:20:02.000Z,7
2022-07-29T10:20:04.000Z,8
2022-07-29T10:20:07.000Z,8
2022-07-29T10:20:09.000Z,7
2022-07-29T10:20:09.000Z,7
2022-07-29T10:20:12.000Z,7
2022-07-29T10:20:14.000Z,7
2022-07-29T10:20:17.000Z,2
2022-07-29T10:20:19.000Z,2
2022-07-29T10:20:22.000Z,7
2022-07-29T10:20:25.000Z,7
2022-07-29T10:20:27.000Z,8
2022-07-29T10:20:29.000Z,7
2022-07-29T10:20:30.000Z,8
2022-07-29T10:20:32.000Z,8
2022-07-29T10:20:35.000Z,8
2022-07-29T10:20:37.000Z,7
2022-07-29T10:20:40.000Z,8
2022-07-29T10:20:42.000Z,8
2022-07-29T10:20:45.000Z,1
2022-07-29T10:20:47.000Z,2
2022-07-29T10:20:50.000Z,4
2022-07-29T10:20:50.000Z,1
2022-07-29T10:20:52.000Z,7
2022-07-29T10:20:55.000Z,5
2022-07-29T10:20:57.000Z,5
2022-07-29T10:21:00.000Z,6
2022-07-29T10:21:02.000Z,6
2022-07-29T10:21:05.000Z,6
2022-07-29T10:21:08.000Z,6
2022-07-29T10:21:10.000Z,6
2022-07-29T10:21:10.000Z,6
2022-07-29T10:21:13.000Z,6
2022-07-29T10:21:15.000Z,6
2022-07-29T10:21:18.000Z,5
2022-07-29T10:21:20.000Z,5
2022-07-29T10:21:23.000Z,6
2022-07-29T10:21:25.000Z,8
2022-07-29T10:21:28.000Z,2
2022-07-29T10:22:41.000Z,7
2022-07-29T10:22:41.000Z,7
2022-07-29T10:22:44.000Z,5
2022-07-29T10:22:47.000Z,6
2022-07-29T10:22:49.000Z,6
2022-07-29T10:22:52.000Z,5
2022-07-29T10:22:54.000Z,6
2022-07-29T10:22:57.000Z,5
2022-07-29T10:22:59.000Z,5
2022-07-29T10:23:01.000Z,5
2022-07-29T10:23:02.000Z,5
2022-07-29T10:23:04.000Z,7
2022-07-29T10:23:07.000Z,5
2022-07-29T10:23:09.000Z,1
2022-07-29T10:23:12.000Z,1
2022-07-29T10:23:14.000Z,1
2022-07-29T10:23:17.000Z,1
2022-07-29T10:23:19.000Z,1
2022-07-29T10:23:22.000Z,0
2022-07-29T10:23:22.000Z,1
2022-07-29T10:23:24.000Z,1
2022-07-29T10:23:27.000Z,1
2022-07-29T10:23:30.000Z,1
